Estación meteorológica de Montseny - Vallcàrquera (Vallès Oriental, Parc Natural del Montseny)

Consulta los datos en tiempo real de la estación meteorológica de Montseny - Vallcàrquera





Hora UTC 03:15
Temperatura 9.1 ºC
Humedad 97.6 %
Pluja 0.1 mm
Velocidad viento 1.8 km/h
Dirección viento NE
Radiación solar 0.0 W/m²

Datos diarios 2026-05-10



Hora UTC (invierno +1h; verano +2h)
Temperatura (ºC) Humedad (%) Velocidad viento (km/h) Precipitación (mm) Radiación solar (W/m²)
Hora UTC Aire Humedad Vel. Dir. Vel. Max Dir. Intent. máx 5 min. Rad. Sol.
00:05 11.2 97.5 0.0 NNE 0.0 ESE 0.0 0.0
00:10 11.2 97.5 0.0 NNE 0.0 WSW 0.0 0.0
00:15 11.1 97.4 0.3 N 2.1 NW 0.0 0.0
00:20 11.0 97.3 1.6 ENE 2.8 ENE 0.0 0.0
00:25 10.9 97.3 0.8 NNE 2.1 NNE 0.0 0.0
00:30 10.7 97.3 1.0 NNE 2.1 N 0.0 0.0
00:35 10.5 97.1 2.2 NE 5.3 ENE 0.0 0.0
00:40 10.4 97.3 3.0 ENE 4.6 ENE 0.1 0.0
00:45 10.3 97.1 2.4 ENE 4.2 ENE 0.0 0.0
00:50 10.1 97.2 2.7 ENE 4.2 ENE 0.0 0.0
00:55 10.1 97.2 1.3 NE 2.5 NE 0.0 0.0
01:00 9.9 97.1 0.7 ENE 2.8 ENE 0.0 0.0
01:05 9.7 96.9 0.4 ENE 2.5 E 0.0 0.0
01:10 9.7 97.1 1.2 NNE 2.5 NNE 0.0 0.0
01:15 9.5 97.0 1.1 ENE 2.5 ENE 0.0 0.0
01:20 9.4 97.1 0.7 NE 2.1 ENE 0.0 0.0
01:25 9.4 97.3 1.1 NNE 2.5 ENE 0.0 0.0
01:30 9.3 97.1 1.3 NNE 2.5 ENE 0.0 0.0
01:35 9.3 97.5 2.1 NE 4.6 ENE 0.0 0.0
01:40 9.4 97.5 1.4 NE 2.8 NE 0.0 0.0
01:45 9.3 97.4 0.7 NE 2.5 ENE 0.0 0.0
01:50 9.3 97.4 1.1 NE 2.8 NE 0.0 0.0
01:55 9.4 97.6 1.0 NE 2.5 NE 0.0 0.0
02:00 9.3 97.4 0.5 NNE 2.1 NE 0.0 0.0
02:05 9.2 97.4 1.3 NE 4.6 ENE 0.0 0.0
02:10 9.2 97.6 2.0 NE 3.9 ENE 0.0 0.0
02:15 9.3 97.6 0.7 NE 2.8 NE 0.0 0.0
02:20 9.2 97.4 1.2 NE 2.8 ENE 0.0 0.0
02:25 9.0 97.4 2.4 NE 5.6 ENE 0.0 0.0
02:30 9.2 97.6 1.4 NE 3.5 NE 0.0 0.0
02:35 9.2 97.6 2.3 NE 4.9 ENE 0.0 0.0
02:40 9.2 97.5 3.4 ENE 4.9 E 0.0 0.0
02:45 9.2 97.5 3.0 NE 5.6 ENE 0.0 0.0
02:50 9.2 97.4 1.6 NE 2.5 N 0.0 0.0
02:55 9.1 97.4 2.6 NE 4.6 NNE 0.0 0.0
03:00 9.2 97.5 1.4 NE 2.5 NNW 0.0 0.0
03:05 9.1 97.5 2.1 NE 3.9 NNE 0.0 0.0
03:10 9.1 97.5 1.5 NNE 2.8 ENE 0.0 0.0
03:15 9.1 97.6 1.8 NE 3.2 N 0.0 0.0
Máxima 11.2 97.6 3.4 ENE 5.6 ENE 0.1 0.0
Mínima 9.0 96.9
Total 0.1